Time;durP1;ratioP1;P1;durP2;ratioP2;P2;SDS_P1;SDS_P2;PMS_P1;PMS_P2;Temp;Humidity;BMP_temperature;BMP_pressure;BME280_temperature;BME280_humidity;BME280_pressure;Samples;Min_cycle;Max_cycle;Signal;HPM_P1;HPM_P2
2020/12/14 00:01:16;;;;;;;53.28;34.60;;;4.60;99.90;;;;;;5056211;28;20032;-72
2020/12/14 00:03:42;;;;;;;50.95;32.78;;;4.60;99.90;;;;;;5054895;28;20025;-70
2020/12/14 00:06:08;;;;;;;53.58;35.15;;;4.70;99.90;;;;;;5055831;28;20021;-70
2020/12/14 00:08:34;;;;;;;51.05;33.47;;;4.70;99.90;;;;;;5057697;28;20037;-69
2020/12/14 00:10:59;;;;;;;48.38;31.30;;;4.70;99.90;;;;;;5055888;28;20086;-70
2020/12/14 00:13:25;;;;;;;47.10;30.85;;;4.60;99.90;;;;;;5057407;28;20021;-72
2020/12/14 00:15:50;;;;;;;52.45;33.47;;;4.40;99.90;;;;;;5054416;28;20028;-72
2020/12/14 00:18:16;;;;;;;49.85;34.42;;;4.40;99.90;;;;;;5053827;28;20025;-72
2020/12/14 00:20:42;;;;;;;57.70;36.60;;;4.30;99.90;;;;;;5056128;28;20048;-72
2020/12/14 00:23:07;;;;;;;54.88;36.05;;;4.30;99.90;;;;;;5055614;28;20478;-70
2020/12/14 00:25:33;;;;;;;55.58;35.70;;;4.20;99.90;;;;;;5057380;28;20478;-72
2020/12/14 00:27:59;;;;;;;58.65;38.33;;;4.30;99.90;;;;;;5047532;28;20021;-71
2020/12/14 00:30:24;;;;;;;58.63;38.17;;;4.30;99.90;;;;;;5046829;28;20090;-71
2020/12/14 00:32:51;;;;;;;57.05;39.05;;;4.30;99.90;;;;;;5056126;28;20048;-71
2020/12/14 00:35:16;;;;;;;54.53;36.75;;;4.30;99.90;;;;;;5054510;28;20086;-72
2020/12/14 00:37:42;;;;;;;54.83;36.15;;;4.30;99.90;;;;;;5053806;28;20029;-72
2020/12/14 00:40:07;;;;;;;59.83;38.47;;;4.30;99.90;;;;;;5055299;28;20087;-71
2020/12/14 00:42:33;;;;;;;56.95;38.90;;;4.20;99.90;;;;;;5055757;28;20017;-71
2020/12/14 00:44:59;;;;;;;56.42;37.40;;;4.10;99.90;;;;;;5055001;28;20025;-71
2020/12/14 00:47:24;;;;;;;54.10;34.80;;;4.10;99.90;;;;;;5057811;28;20063;-71
2020/12/14 00:49:50;;;;;;;57.13;35.28;;;4.10;99.90;;;;;;5056571;28;20082;-71
2020/12/14 00:52:16;;;;;;;50.95;34.78;;;4.00;99.90;;;;;;5055801;28;20410;-71
2020/12/14 00:54:41;;;;;;;50.95;34.45;;;4.00;99.90;;;;;;5055382;28;20047;-71
2020/12/14 00:57:07;;;;;;;52.33;34.95;;;4.00;99.90;;;;;;5055847;28;20017;-72
2020/12/14 00:59:33;;;;;;;53.15;35.25;;;3.90;99.90;;;;;;5054373;28;20025;-72
2020/12/14 01:01:59;;;;;;;54.95;36.97;;;3.90;99.90;;;;;;5054845;28;20071;-72
2020/12/14 01:04:24;;;;;;;56.67;36.10;;;3.90;99.90;;;;;;5057014;28;20112;-72
2020/12/14 01:06:52;;;;;;;54.50;35.60;;;3.90;99.90;;;;;;5055320;28;20025;-72
2020/12/14 01:09:18;;;;;;;53.05;34.90;;;3.90;99.90;;;;;;5053089;28;20036;-72
2020/12/14 01:11:44;;;;;;;57.90;35.97;;;3.90;99.90;;;;;;5054498;28;20025;-71
2020/12/14 01:14:09;;;;;;;51.65;33.97;;;4.00;99.90;;;;;;5056604;28;20025;-71
2020/12/14 01:16:35;;;;;;;55.35;36.15;;;3.90;99.90;;;;;;5054922;28;20044;-71
2020/12/14 01:19:00;;;;;;;55.90;36.42;;;3.90;99.90;;;;;;5054306;28;20025;-72
2020/12/14 01:21:26;;;;;;;51.08;33.38;;;3.90;99.90;;;;;;5055795;28;20032;-71
2020/12/14 01:23:52;;;;;;;53.17;34.72;;;3.90;99.90;;;;;;5055365;28;20029;-72
2020/12/14 01:26:18;;;;;;;50.22;32.75;;;3.80;99.90;;;;;;5054508;28;20104;-72
2020/12/14 01:28:44;;;;;;;52.00;34.17;;;3.80;99.90;;;;;;5052663;28;20082;-72
2020/12/14 01:31:09;;;;;;;55.83;37.67;;;3.80;99.90;;;;;;5056086;28;20037;-72
2020/12/14 01:33:35;;;;;;;54.38;35.67;;;3.80;99.90;;;;;;5054584;28;20025;-72
2020/12/14 01:36:01;;;;;;;53.83;35.55;;;3.70;99.90;;;;;;5054544;28;20356;-72
2020/12/14 01:38:27;;;;;;;55.03;36.85;;;3.70;99.90;;;;;;5055757;28;20017;-72
2020/12/14 01:40:53;;;;;;;61.25;41.28;;;3.70;99.90;;;;;;5055078;28;20125;-72
2020/12/14 01:43:18;;;;;;;54.00;35.83;;;3.70;99.90;;;;;;5052725;28;20101;-72
2020/12/14 01:45:44;;;;;;;54.20;37.60;;;3.70;99.90;;;;;;5054456;28;20029;-72
2020/12/14 01:48:12;;;;;;;53.03;35.05;;;3.70;99.90;;;;;;5054444;28;20048;-71
2020/12/14 01:50:38;;;;;;;52.40;36.00;;;3.60;99.90;;;;;;5052952;28;20115;-71
2020/12/14 01:53:06;;;;;;;50.40;35.08;;;3.60;99.90;;;;;;5053920;28;20437;-72
2020/12/14 01:55:36;;;;;;;60.63;38.17;;;3.60;99.90;;;;;;5055670;28;20466;-71
2020/12/14 01:58:02;;;;;;;61.08;40.38;;;3.60;99.90;;;;;;5054642;28;20104;-72
2020/12/14 02:00:27;;;;;;;79.47;51.90;;;3.60;99.90;;;;;;5053970;28;20059;-72
2020/12/14 02:02:53;;;;;;;87.22;56.90;;;3.60;99.90;;;;;;5053692;28;20029;-72
2020/12/14 02:05:19;;;;;;;66.45;43.80;;;3.60;99.90;;;;;;5052632;28;20040;-72
2020/12/14 02:07:44;;;;;;;73.22;48.47;;;3.60;99.90;;;;;;5052606;28;20082;-71
2020/12/14 02:10:10;;;;;;;74.60;52.25;;;3.60;99.90;;;;;;5053256;28;20029;-72
2020/12/14 02:12:35;;;;;;;84.10;54.67;;;3.60;99.90;;;;;;5055410;28;20036;-71
2020/12/14 02:15:01;;;;;;;78.60;47.83;;;3.60;99.90;;;;;;5054258;28;20020;-72
2020/12/14 02:17:27;;;;;;;64.00;42.58;;;3.60;99.90;;;;;;5054584;28;20110;-71
2020/12/14 02:19:54;;;;;;;66.30;42.20;;;3.60;99.90;;;;;;5054680;28;20032;-71
2020/12/14 02:22:22;;;;;;;63.63;41.10;;;3.50;99.90;;;;;;5052258;28;20037;-71
2020/12/14 02:25:03;;;;;;;62.05;42.13;;;3.60;99.90;;;;;;5052106;28;20021;-72
2020/12/14 02:27:30;;;;;;;65.35;43.75;;;3.50;99.90;;;;;;5053965;28;20033;-72
2020/12/14 02:29:56;;;;;;;64.65;43.13;;;3.50;99.90;;;;;;5057279;28;20112;-71
2020/12/14 02:32:25;;;;;;;68.10;45.28;;;3.50;99.90;;;;;;5053806;28;20081;-72
2020/12/14 02:34:50;;;;;;;64.95;43.35;;;3.60;99.90;;;;;;5054006;28;20021;-71
2020/12/14 02:37:20;;;;;;;62.78;42.30;;;3.60;99.90;;;;;;5054041;28;20087;-72
2020/12/14 02:39:46;;;;;;;63.72;40.80;;;3.50;99.90;;;;;;5053245;28;20029;-71
2020/12/14 02:42:14;;;;;;;60.50;38.38;;;3.50;99.90;;;;;;5057165;28;20386;-72
2020/12/14 02:44:40;;;;;;;61.03;41.80;;;3.60;99.90;;;;;;5057781;28;20051;-71
2020/12/14 02:47:07;;;;;;;58.72;39.05;;;3.50;99.90;;;;;;5056371;28;20033;-72
2020/12/14 02:49:33;;;;;;;57.95;40.92;;;3.50;99.90;;;;;;5057889;28;20064;-72
2020/12/14 02:51:59;;;;;;;62.13;41.38;;;3.50;99.90;;;;;;5057490;28;20043;-71
2020/12/14 02:54:25;;;;;;;61.50;41.80;;;3.50;99.90;;;;;;5058438;28;20029;-72
2020/12/14 02:56:51;;;;;;;59.45;40.50;;;3.50;99.90;;;;;;5055941;28;20179;-71
2020/12/14 02:59:17;;;;;;;54.28;37.65;;;3.40;99.90;;;;;;5056723;28;20446;-71
2020/12/14 03:01:43;;;;;;;51.22;34.88;;;3.40;99.90;;;;;;5056016;28;20041;-71
2020/12/14 03:04:09;;;;;;;55.50;37.63;;;3.30;99.90;;;;;;5057052;28;20025;-71
2020/12/14 03:06:35;;;;;;;55.97;38.83;;;3.30;99.90;;;;;;5057420;28;20123;-71
2020/12/14 03:09:00;;;;;;;54.72;38.17;;;3.30;99.90;;;;;;5058223;28;20028;-71
2020/12/14 03:11:26;;;;;;;60.50;42.63;;;3.30;99.90;;;;;;5057361;28;20021;-71
2020/12/14 03:13:52;;;;;;;58.85;38.38;;;3.30;99.90;;;;;;5057736;28;20017;-71
2020/12/14 03:16:18;;;;;;;50.85;36.05;;;3.30;99.90;;;;;;5055658;28;20052;-71
2020/12/14 03:18:44;;;;;;;55.30;38.33;;;3.20;99.90;;;;;;5056732;28;20024;-72
2020/12/14 03:21:10;;;;;;;55.90;38.72;;;3.20;99.90;;;;;;5058375;28;20041;-72
2020/12/14 03:23:36;;;;;;;54.25;35.63;;;3.20;99.90;;;;;;5057632;28;20099;-72
2020/12/14 03:26:02;;;;;;;57.40;37.97;;;3.10;99.90;;;;;;5059259;28;20455;-71
2020/12/14 03:28:28;;;;;;;57.58;38.40;;;3.10;99.90;;;;;;5057365;28;20378;-71
2020/12/14 03:30:53;;;;;;;56.25;38.00;;;3.10;99.90;;;;;;5057715;28;20481;-72
2020/12/14 03:33:19;;;;;;;57.15;39.22;;;3.10;99.90;;;;;;5055832;28;20025;-71
2020/12/14 03:35:47;;;;;;;55.85;38.10;;;3.10;99.90;;;;;;5056026;28;20021;-72
2020/12/14 03:38:15;;;;;;;61.17;41.58;;;3.10;99.90;;;;;;5057707;28;20028;-71
2020/12/14 03:40:42;;;;;;;63.75;42.28;;;3.10;99.90;;;;;;5057597;28;20099;-71
2020/12/14 03:43:08;;;;;;;62.60;41.40;;;3.10;99.90;;;;;;5056283;28;20050;-72
2020/12/14 03:45:34;;;;;;;59.22;40.58;;;3.10;99.90;;;;;;5060307;28;20029;-72
2020/12/14 03:48:00;;;;;;;63.15;42.83;;;3.10;99.90;;;;;;5056530;28;20037;-71
2020/12/14 03:50:25;;;;;;;60.08;41.00;;;3.10;99.90;;;;;;5057260;28;20500;-71
2020/12/14 03:52:51;;;;;;;66.43;42.95;;;3.10;99.90;;;;;;5055730;28;20013;-71
2020/12/14 03:55:17;;;;;;;60.05;42.63;;;3.10;99.90;;;;;;5058007;28;20075;-72
2020/12/14 03:57:43;;;;;;;69.63;48.28;;;3.10;99.90;;;;;;5055801;28;20544;-70
2020/12/14 04:00:08;;;;;;;72.28;49.88;;;3.10;99.90;;;;;;5057378;28;20033;-72
2020/12/14 04:02:34;;;;;;;76.40;52.17;;;3.10;99.90;;;;;;5057087;28;20025;-71
2020/12/14 04:04:59;;;;;;;74.35;50.28;;;3.20;99.90;;;;;;5056306;28;20483;-71
2020/12/14 04:07:26;;;;;;;76.22;52.22;;;3.30;99.90;;;;;;5056511;28;20052;-72
2020/12/14 04:09:52;;;;;;;81.03;52.45;;;3.30;99.90;;;;;;5055335;28;20029;-72
2020/12/14 04:12:18;;;;;;;76.53;50.47;;;3.40;99.90;;;;;;5057318;28;20075;-72
2020/12/14 04:14:43;;;;;;;73.20;50.83;;;3.40;99.90;;;;;;5058074;28;20021;-73
2020/12/14 04:17:09;;;;;;;74.22;51.72;;;3.40;99.90;;;;;;5056399;28;20032;-70
2020/12/14 04:19:34;;;;;;;83.60;53.58;;;3.40;99.90;;;;;;5055798;28;20100;-71
2020/12/14 04:22:07;;;;;;;77.35;51.08;;;3.50;99.90;;;;;;5055558;28;20028;-71
2020/12/14 04:24:33;;;;;;;73.82;48.95;;;3.50;99.90;;;;;;5055835;28;20021;-70
2020/12/14 04:26:59;;;;;;;75.78;48.97;;;3.60;99.90;;;;;;5056498;28;20025;-72
2020/12/14 04:29:24;;;;;;;73.05;49.50;;;3.50;99.90;;;;;;5057682;28;20021;-71
2020/12/14 04:31:50;;;;;;;76.45;49.78;;;3.50;99.90;;;;;;5056585;28;20043;-71
2020/12/14 04:34:17;;;;;;;74.55;50.70;;;3.50;99.90;;;;;;5055414;28;20414;-71
2020/12/14 04:36:47;;;;;;;76.00;49.60;;;3.50;99.90;;;;;;5055953;28;20017;-71
2020/12/14 04:39:13;;;;;;;78.72;51.40;;;3.50;99.90;;;;;;5054058;28;20029;-70
2020/12/14 04:41:39;;;;;;;74.00;50.05;;;3.50;99.90;;;;;;5054096;28;20071;-70
2020/12/14 04:44:07;;;;;;;73.97;47.60;;;3.50;99.90;;;;;;5037963;28;20040;-70
2020/12/14 04:46:34;;;;;;;69.10;47.90;;;3.50;99.90;;;;;;5057117;28;20036;-71
2020/12/14 04:49:04;;;;;;;65.65;45.92;;;3.50;99.90;;;;;;5057406;28;20405;-70
2020/12/14 04:51:32;;;;;;;74.00;50.58;;;3.40;99.90;;;;;;5055004;28;20029;-70
2020/12/14 04:54:00;;;;;;;69.28;47.13;;;3.30;99.90;;;;;;5055100;28;20025;-70
2020/12/14 04:56:27;;;;;;;69.72;47.92;;;3.30;99.90;;;;;;5054827;28;20020;-70
2020/12/14 04:58:53;;;;;;;72.30;49.08;;;3.20;99.90;;;;;;5054853;28;20025;-70
2020/12/14 05:01:18;;;;;;;68.75;47.78;;;3.20;99.90;;;;;;5054650;28;20028;-71
2020/12/14 05:03:44;;;;;;;72.55;49.20;;;3.10;99.90;;;;;;5058792;28;20029;-70
2020/12/14 05:06:09;;;;;;;69.40;48.97;;;3.10;99.90;;;;;;5055801;28;20044;-72
2020/12/14 05:08:35;;;;;;;72.03;48.97;;;3.00;99.90;;;;;;5054953;28;20025;-71
2020/12/14 05:11:01;;;;;;;72.82;50.38;;;3.00;99.90;;;;;;5054278;28;20094;-72
2020/12/14 05:13:27;;;;;;;69.35;50.30;;;3.00;99.90;;;;;;5054737;28;20036;-71
2020/12/14 05:15:53;;;;;;;68.70;47.17;;;3.00;99.90;;;;;;5054790;28;20378;-71
2020/12/14 05:18:23;;;;;;;68.15;47.47;;;3.00;99.90;;;;;;5054298;28;20017;-74
2020/12/14 05:21:05;;;;;;;69.45;47.60;;;3.00;99.90;;;;;;5061337;28;20079;-70
2020/12/14 05:23:32;;;;;;;69.60;47.38;;;3.00;99.90;;;;;;5053602;28;20395;-71
2020/12/14 05:26:13;;;;;;;67.13;45.60;;;3.00;99.90;;;;;;5052796;28;20083;-71
2020/12/14 05:28:39;;;;;;;66.30;44.50;;;3.00;99.90;;;;;;5051921;28;20104;-70
2020/12/14 05:31:05;;;;;;;71.43;46.95;;;3.00;99.90;;;;;;5051639;28;20174;-69
2020/12/14 05:33:32;;;;;;;68.53;46.30;;;2.90;99.90;;;;;;5053180;28;20044;-71
2020/12/14 05:35:58;;;;;;;69.88;47.38;;;2.90;99.90;;;;;;5052787;28;20029;-70
2020/12/14 05:38:27;;;;;;;70.75;48.40;;;2.90;99.90;;;;;;5054479;28;20028;-70
2020/12/14 05:41:04;;;;;;;70.55;48.17;;;2.90;99.90;;;;;;5053952;28;20033;-69
2020/12/14 05:43:32;;;;;;;66.45;45.83;;;2.90;99.90;;;;;;5034583;28;20395;-70
2020/12/14 05:46:11;;;;;;;72.95;48.38;;;3.00;99.90;;;;;;5035749;28;20056;-70
2020/12/14 05:48:37;;;;;;;65.50;44.20;;;3.00;99.90;;;;;;5053672;28;20039;-69
2020/12/14 05:51:08;;;;;;;59.67;44.10;;;3.00;99.90;;;;;;5054222;28;20036;-69
2020/12/14 05:53:39;;;;;;;64.03;43.47;;;3.10;99.90;;;;;;5056120;28;20072;-69
2020/12/14 05:56:09;;;;;;;63.67;43.70;;;3.10;99.90;;;;;;5054041;28;20098;-69
2020/12/14 05:58:36;;;;;;;;;;;3.10;99.90;;;;;;5054789;28;20028;-71
2020/12/14 06:01:04;;;;;;;61.10;42.67;;;3.20;99.90;;;;;;5052487;28;19927;-70
2020/12/14 06:03:30;;;;;;;60.45;41.63;;;3.10;99.90;;;;;;5053911;28;20089;-70
2020/12/14 06:06:02;;;;;;;64.93;43.83;;;3.20;99.90;;;;;;5056548;28;20029;-69
2020/12/14 06:08:46;;;;;;;65.53;44.20;;;3.10;99.90;;;;;;5053548;28;20032;-69
2020/12/14 06:11:17;;;;;;;64.75;43.92;;;3.10;99.90;;;;;;5055018;28;20033;-69
2020/12/14 06:13:54;;;;;;;65.68;45.10;;;3.10;99.90;;;;;;5053305;28;20107;-70
2020/12/14 06:16:31;;;;;;;67.45;42.17;;;3.10;99.90;;;;;;5054031;28;20032;-69
2020/12/14 06:18:58;;;;;;;62.60;42.92;;;3.10;99.90;;;;;;5053559;28;20423;-71
2020/12/14 06:21:41;;;;;;;61.75;41.55;;;3.10;99.90;;;;;;5053654;28;20029;-70
2020/12/14 06:24:18;;;;;;;57.97;41.50;;;3.10;99.90;;;;;;5051878;28;20017;-71
2020/12/14 06:26:44;;;;;;;65.22;42.70;;;3.10;99.90;;;;;;5052529;28;20071;-70
2020/12/14 06:29:27;;;;;;;61.15;44.00;;;3.10;99.90;;;;;;5053169;28;20051;-70
2020/12/14 06:31:52;;;;;;;67.68;44.47;;;3.00;99.90;;;;;;5053931;28;20035;-70
2020/12/14 06:34:33;;;;;;;62.55;44.30;;;3.00;99.90;;;;;;5037789;28;20022;-71
2020/12/14 06:37:03;;;;;;;61.15;44.88;;;3.00;99.90;;;;;;5053701;28;20033;-71
2020/12/14 06:39:34;;;;;;;62.03;43.28;;;3.00;99.90;;;;;;5053764;28;20017;-70
2020/12/14 06:42:09;;;;;;;64.25;44.30;;;3.00;99.90;;;;;;5053902;28;20033;-70
2020/12/14 06:44:55;;;;;;;69.07;45.85;;;3.10;99.90;;;;;;5054000;28;20478;-71
2020/12/14 06:47:21;;;;;;;71.07;46.67;;;3.10;99.90;;;;;;5049918;28;20124;-71
2020/12/14 06:49:47;;;;;;;61.10;42.97;;;3.20;99.90;;;;;;5053877;28;20048;-70
2020/12/14 06:52:13;;;;;;;67.03;44.40;;;3.20;99.90;;;;;;5053204;28;20108;-71
2020/12/14 06:54:43;;;;;;;72.75;47.72;;;3.10;99.90;;;;;;5054278;28;20013;-71
2020/12/14 06:57:14;;;;;;;69.05;46.40;;;3.20;99.90;;;;;;5052491;28;20025;-71
2020/12/14 06:59:49;;;;;;;67.10;44.95;;;3.20;99.90;;;;;;5052088;28;20047;-71
2020/12/14 07:02:15;;;;;;;70.25;47.67;;;3.20;99.90;;;;;;5051892;28;20024;-70
2020/12/14 07:04:43;;;;;;;72.30;47.42;;;3.20;99.90;;;;;;5053119;28;20021;-71
2020/12/14 07:07:11;;;;;;;64.68;44.53;;;3.20;99.90;;;;;;5051933;28;20029;-70
2020/12/14 07:09:38;;;;;;;66.30;45.13;;;3.30;99.90;;;;;;5054348;28;20037;-71
2020/12/14 07:12:10;;;;;;;66.80;46.35;;;3.30;99.90;;;;;;5054663;28;20086;-70
2020/12/14 07:14:54;;;;;;;68.93;46.70;;;3.30;99.90;;;;;;5053786;28;20036;-71
2020/12/14 07:17:25;;;;;;;63.13;43.67;;;3.30;99.90;;;;;;5052855;28;20032;-70
2020/12/14 07:19:55;;;;;;;68.78;47.30;;;3.40;99.90;;;;;;5053078;28;20033;-71
2020/12/14 07:22:25;;;;;;;65.20;43.70;;;3.40;99.90;;;;;;5035370;28;20021;-71
2020/12/14 07:25:04;;;;;;;68.93;45.60;;;3.40;99.90;;;;;;5055181;28;20036;-70
2020/12/14 07:27:31;;;;;;;66.57;45.87;;;3.40;99.90;;;;;;5055179;28;20034;-70
2020/12/14 07:30:08;;;;;;;70.53;47.35;;;3.40;99.90;;;;;;5057003;28;20383;-70
2020/12/14 07:32:34;;;;;;;67.93;45.67;;;3.50;99.90;;;;;;5057493;28;20087;-71
2020/12/14 07:35:00;;;;;;;66.45;45.05;;;3.50;99.90;;;;;;5057220;28;20053;-71
2020/12/14 07:37:26;;;;;;;66.57;46.15;;;3.60;99.90;;;;;;5056237;28;20040;-70
2020/12/14 07:39:52;;;;;;;68.65;46.13;;;3.60;99.90;;;;;;5055068;28;20044;-71
2020/12/14 07:42:30;;;;;;;68.30;46.42;;;3.60;99.90;;;;;;5055000;28;20098;-70
2020/12/14 07:45:19;;;;;;;74.07;47.05;;;3.70;99.90;;;;;;5055728;28;20131;-70
2020/12/14 07:47:50;;;;;;;66.10;45.25;;;3.70;99.90;;;;;;5055179;28;20033;-71
2020/12/14 07:50:18;;;;;;;70.88;47.60;;;3.70;99.90;;;;;;5054627;28;20056;-71
2020/12/14 07:52:54;;;;;;;72.10;48.67;;;3.70;99.90;;;;;;5054959;28;20078;-70
2020/12/14 07:55:22;;;;;;;69.47;48.30;;;3.80;99.90;;;;;;5055084;28;20187;-71
2020/12/14 07:57:49;;;;;;;74.72;46.35;;;3.80;99.90;;;;;;5054243;28;20118;-70
2020/12/14 08:00:23;;;;;;;66.45;46.42;;;3.80;99.90;;;;;;5055851;28;20100;-70
2020/12/14 08:02:50;;;;;;;71.20;49.70;;;4.00;99.90;;;;;;5054349;28;20060;-71
2020/12/14 08:05:18;;;;;;;73.35;48.53;;;4.00;99.90;;;;;;5054589;28;20029;-68
2020/12/14 08:07:48;;;;;;;69.65;46.72;;;4.00;99.90;;;;;;5038134;28;20036;-76
2020/12/14 08:10:15;;;;;;;65.65;46.15;;;4.10;99.90;;;;;;5055767;28;20025;-71
2020/12/14 08:12:42;;;;;;;70.47;49.22;;;4.10;99.90;;;;;;5055966;28;20029;-71
2020/12/14 08:15:18;;;;;;;69.75;48.28;;;4.10;99.90;;;;;;5054567;28;20033;-70
2020/12/14 08:17:45;;;;;;;67.75;47.30;;;4.20;99.90;;;;;;5057003;28;20025;-70
2020/12/14 08:20:33;;;;;;;66.45;47.97;;;4.20;99.90;;;;;;5056292;28;20387;-69
2020/12/14 08:23:00;;;;;;;65.97;46.38;;;4.20;99.90;;;;;;5055599;28;20430;-67
2020/12/14 08:25:28;;;;;;;69.13;47.35;;;4.30;99.90;;;;;;5054135;28;20029;-73
2020/12/14 08:27:57;;;;;;;69.47;46.95;;;4.40;99.90;;;;;;5054645;28;20059;-72
2020/12/14 08:30:25;;;;;;;68.47;45.75;;;4.50;99.90;;;;;;5053973;28;20467;-77
2020/12/14 08:33:11;;;;;;;73.60;44.53;;;4.60;99.90;;;;;;5054023;28;20032;-76
2020/12/14 08:35:39;;;;;;;68.38;47.58;;;4.70;99.90;;;;;;5055975;28;20052;-75
2020/12/14 08:38:11;;;;;;;69.47;45.30;;;4.80;99.90;;;;;;5057107;28;20375;-76
2020/12/14 08:40:37;;;;;;;64.72;45.60;;;4.90;99.90;;;;;;5055158;28;20452;-75
2020/12/14 08:43:11;;;;;;;68.65;47.35;;;5.00;99.90;;;;;;5055055;28;20421;-75
2020/12/14 08:45:39;;;;;;;64.25;44.08;;;5.10;99.90;;;;;;5055128;28;20025;-76
2020/12/14 08:48:05;;;;;;;66.20;43.88;;;5.20;99.90;;;;;;5054728;28;20577;-76
2020/12/14 08:50:31;;;;;;;64.97;45.45;;;5.30;99.90;;;;;;5055001;28;20041;-76
2020/12/14 08:53:01;;;;;;;66.95;44.53;;;5.40;99.90;;;;;;5056187;28;20053;-76
2020/12/14 08:55:37;;;;;;;68.35;46.97;;;5.40;99.90;;;;;;5055498;28;20104;-75
2020/12/14 08:58:03;;;;;;;64.93;46.20;;;5.50;99.90;;;;;;5054522;28;20025;-76
2020/12/14 09:00:28;;;;;;;65.35;46.55;;;5.50;99.90;;;;;;5056207;28;20033;-75
2020/12/14 09:03:01;;;;;;;69.32;47.72;;;5.60;99.90;;;;;;5055199;28;20035;-74
2020/12/14 09:05:35;;;;;;;66.63;46.95;;;5.60;99.90;;;;;;5056404;28;20057;-77
2020/12/14 09:08:15;;;;;;;63.65;46.35;;;5.60;99.90;;;;;;5056137;28;20028;-75
2020/12/14 09:10:41;;;;;;;63.85;44.08;;;5.70;99.90;;;;;;5054162;28;20037;-75
2020/12/14 09:13:07;;;;;;;64.53;44.38;;;5.60;99.90;;;;;;5055285;28;20478;-77
2020/12/14 09:15:34;;;;;;;63.67;45.63;;;5.70;99.90;;;;;;5054885;28;20032;-76
2020/12/14 09:18:02;;;;;;;66.63;44.42;;;5.60;99.90;;;;;;5054595;28;20470;-77
2020/12/14 09:20:28;;;;;;;67.13;44.90;;;5.70;99.90;;;;;;5054635;28;20029;-77
2020/12/14 09:22:53;;;;;;;63.33;44.90;;;5.80;99.90;;;;;;5054351;28;20021;-77
2020/12/14 09:25:19;;;;;;;68.20;44.88;;;5.80;99.90;;;;;;5053002;28;20123;-77
2020/12/14 09:27:45;;;;;;;63.28;47.08;;;5.80;99.90;;;;;;5056484;28;20428;-76
2020/12/14 09:30:10;;;;;;;66.72;46.30;;;5.90;99.90;;;;;;5054610;28;20037;-76
2020/12/14 09:32:36;;;;;;;68.25;48.75;;;6.00;99.90;;;;;;5054489;28;20029;-77
2020/12/14 09:35:02;;;;;;;65.90;46.38;;;6.10;99.90;;;;;;5054084;28;20025;-76
2020/12/14 09:37:27;;;;;;;67.68;47.63;;;6.20;99.90;;;;;;5054185;28;20096;-76
2020/12/14 09:39:54;;;;;;;64.13;47.83;;;6.30;99.90;;;;;;5054307;28;20063;-77
2020/12/14 09:42:20;;;;;;;69.00;46.40;;;6.30;99.90;;;;;;5056296;28;20074;-78
2020/12/14 09:44:46;;;;;;;65.65;46.67;;;6.40;99.90;;;;;;5054811;28;20099;-76
2020/12/14 09:47:12;;;;;;;65.03;46.83;;;6.50;99.90;;;;;;5054358;28;20029;-77
2020/12/14 09:49:38;;;;;;;65.65;47.45;;;6.50;99.90;;;;;;5054332;28;20024;-77
2020/12/14 09:52:03;;;;;;;65.95;47.50;;;6.60;99.90;;;;;;5056129;28;20048;-76
2020/12/14 09:54:29;;;;;;;64.90;46.97;;;6.70;99.90;;;;;;5052388;28;20028;-76
2020/12/14 09:56:54;;;;;;;65.88;47.85;;;6.80;99.90;;;;;;5054243;28;20020;-77
2020/12/14 09:59:20;;;;;;;65.28;46.70;;;6.80;99.90;;;;;;5056663;28;20386;-77
2020/12/14 10:01:46;;;;;;;65.70;47.15;;;6.80;99.90;;;;;;5055616;28;20048;-79
2020/12/14 10:04:11;;;;;;;62.30;47.15;;;6.80;99.90;;;;;;5053522;28;20549;-79
2020/12/14 10:06:37;;;;;;;66.18;47.10;;;6.80;99.90;;;;;;5055620;28;20044;-79
2020/12/14 10:09:03;;;;;;;65.97;48.22;;;6.80;99.90;;;;;;5053795;28;20029;-76
2020/12/14 10:11:29;;;;;;;65.28;47.50;;;6.90;99.90;;;;;;5054602;28;20021;-76
2020/12/14 10:13:56;;;;;;;65.40;47.10;;;6.90;99.90;;;;;;5055528;28;20025;-77
2020/12/14 10:16:22;;;;;;;66.80;48.03;;;7.00;99.90;;;;;;5054073;28;20032;-78
2020/12/14 10:18:48;;;;;;;67.35;47.95;;;7.00;99.90;;;;;;5053341;28;20035;-76
2020/12/14 10:21:15;;;;;;;66.80;46.65;;;7.10;99.90;;;;;;5053449;28;20124;-77
2020/12/14 10:23:41;;;;;;;63.00;44.13;;;7.20;99.90;;;;;;5053087;28;20029;-76
2020/12/14 10:26:08;;;;;;;63.30;45.28;;;7.30;99.90;;;;;;5053155;28;20580;-77
2020/12/14 10:28:35;;;;;;;64.72;45.25;;;7.40;99.90;;;;;;5053647;28;20078;-77
2020/12/14 10:31:00;;;;;;;60.63;43.80;;;7.50;99.90;;;;;;5055121;28;20039;-76
2020/12/14 10:33:27;;;;;;;61.65;44.20;;;7.60;99.90;;;;;;5054937;28;20108;-77
2020/12/14 10:35:52;;;;;;;64.07;44.08;;;7.60;99.90;;;;;;5054862;28;20021;-77
2020/12/14 10:38:18;;;;;;;62.03;45.72;;;7.70;99.90;;;;;;5053560;28;20100;-76
2020/12/14 10:40:43;;;;;;;57.67;43.10;;;7.80;99.90;;;;;;5052482;28;20025;-77
2020/12/14 10:43:09;;;;;;;60.95;42.80;;;7.90;99.90;;;;;;5053767;28;20025;-76
2020/12/14 10:45:36;;;;;;;57.88;40.25;;;7.90;99.90;;;;;;5054506;28;20025;-79
2020/12/14 10:48:02;;;;;;;58.22;39.78;;;8.00;99.90;;;;;;5055481;28;20055;-77
2020/12/14 10:50:27;;;;;;;52.75;37.20;;;8.00;99.90;;;;;;5053770;28;20025;-77
2020/12/14 10:52:54;;;;;;;53.60;36.83;;;8.10;99.90;;;;;;5054177;28;20051;-77
2020/12/14 10:55:19;;;;;;;55.60;36.72;;;8.10;99.90;;;;;;5053031;28;20021;-76
2020/12/14 10:57:46;;;;;;;52.67;37.70;;;8.20;99.90;;;;;;5052706;28;20025;-77
2020/12/14 11:00:12;;;;;;;52.80;37.47;;;8.20;99.90;;;;;;5053131;28;20083;-76
2020/12/14 11:02:39;;;;;;;49.13;34.72;;;8.40;99.90;;;;;;5056134;28;20025;-77
2020/12/14 11:05:06;;;;;;;53.17;38.65;;;8.50;99.90;;;;;;5058935;28;20036;-77
2020/12/14 11:07:32;;;;;;;54.22;36.70;;;8.60;99.90;;;;;;5056786;28;20025;-75
2020/12/14 11:09:59;;;;;;;52.28;36.92;;;8.60;99.90;;;;;;5056478;28;20115;-76
2020/12/14 11:12:26;;;;;;;56.97;38.17;;;8.70;99.90;;;;;;5056845;28;20032;-76
2020/12/14 11:14:52;;;;;;;49.83;36.03;;;8.80;99.90;;;;;;5056195;28;20024;-77
2020/12/14 11:17:18;;;;;;;47.60;34.03;;;8.90;99.90;;;;;;5055501;28;20017;-76
2020/12/14 11:19:44;;;;;;;51.58;36.05;;;9.00;99.90;;;;;;5055144;28;20017;-76
2020/12/14 11:22:09;;;;;;;47.80;30.58;;;9.10;99.90;;;;;;5056879;28;20050;-76
2020/12/14 11:24:35;;;;;;;49.50;30.95;;;9.20;99.90;;;;;;5056619;28;20032;-77
2020/12/14 11:27:01;;;;;;;51.92;33.78;;;9.30;99.90;;;;;;5058020;28;20021;-76
2020/12/14 11:29:27;;;;;;;47.58;32.13;;;9.50;99.90;;;;;;5056631;28;20131;-76
2020/12/14 11:31:54;;;;;;;40.40;29.38;;;9.70;99.90;;;;;;5056549;28;20029;-75
2020/12/14 11:34:20;;;;;;;42.90;28.63;;;9.90;99.90;;;;;;5055104;28;20048;-75
2020/12/14 11:36:45;;;;;;;38.17;29.02;;;10.00;99.90;;;;;;5056548;28;20028;-75
2020/12/14 11:39:11;;;;;;;42.30;28.10;;;10.20;99.90;;;;;;5055349;28;20029;-75
2020/12/14 11:41:37;;;;;;;34.25;24.33;;;10.40;99.90;;;;;;5055029;28;20027;-76
2020/12/14 11:44:02;;;;;;;39.03;26.38;;;10.60;99.90;;;;;;5057321;28;20374;-76
2020/12/14 11:46:28;;;;;;;39.20;24.98;;;10.90;99.90;;;;;;5056427;28;20021;-76
2020/12/14 11:48:54;;;;;;;36.05;24.08;;;11.20;99.90;;;;;;5055796;28;20120;-75
2020/12/14 11:51:20;;;;;;;35.33;24.90;;;11.30;99.90;;;;;;5054703;28;20075;-76
2020/12/14 11:53:46;;;;;;;37.03;26.23;;;11.60;99.90;;;;;;5057265;28;20045;-77
2020/12/14 11:56:12;;;;;;;35.60;24.52;;;12.50;99.90;;;;;;5054568;28;20025;-78
2020/12/14 11:58:38;;;;;;;39.33;25.77;;;13.10;99.90;;;;;;5055696;28;20017;-75
2020/12/14 12:01:03;;;;;;;38.30;25.38;;;13.10;99.90;;;;;;5057496;28;20025;-76
2020/12/14 12:03:29;;;;;;;34.75;23.48;;;13.30;99.90;;;;;;5055939;28;20029;-75
2020/12/14 12:05:56;;;;;;;35.13;24.67;;;13.80;99.90;;;;;;5055566;28;20032;-74
2020/12/14 12:08:25;;;;;;;38.63;24.17;;;14.80;99.90;;;;;;5054313;28;20025;-76
2020/12/14 12:10:51;;;;;;;32.70;23.67;;;14.90;99.90;;;;;;5055375;28;20021;-76
2020/12/14 12:13:17;;;;;;;32.25;23.20;;;15.60;99.90;;;;;;5054760;28;20025;-76
2020/12/14 12:15:43;;;;;;;30.73;22.27;;;15.80;99.90;;;;;;5056021;28;20072;-77
2020/12/14 12:18:08;;;;;;;32.38;22.17;;;15.10;99.90;;;;;;5055370;28;20461;-77
2020/12/14 12:20:34;;;;;;;33.25;21.00;;;15.60;99.90;;;;;;5055802;28;20501;-77
2020/12/14 12:23:00;;;;;;;32.42;22.73;;;17.00;99.90;;;;;;5055807;28;20621;-76
2020/12/14 12:25:25;;;;;;;32.63;22.92;;;16.80;99.90;;;;;;5056541;28;20021;-75
2020/12/14 12:27:52;;;;;;;29.90;22.17;;;16.30;99.90;;;;;;5055917;28;20033;-76
2020/12/14 12:30:18;;;;;;;30.65;22.00;;;16.00;99.90;;;;;;5055704;28;20018;-76
2020/12/14 12:32:44;;;;;;;34.65;22.00;;;15.40;99.90;;;;;;5059112;28;20029;-75
2020/12/14 12:35:10;;;;;;;31.70;21.50;;;14.90;99.90;;;;;;5056297;28;20032;-77
2020/12/14 12:37:35;;;;;;;30.58;20.35;;;14.50;99.90;;;;;;5055781;28;20028;-77